Welcome to Trans World Virtual Airlines!

Welcome TWVA's Newest Pilot:

TWA2313 Bryan Heald

Not a Trans World pilot yet?
Apply Now!




Sign-in with your pilot id or email, or register

Flight TWA208-A

  • Submitted By: Austin Hill
  • Departure Airport: Tampa International Airport (KTPA)
  • Arrival Airport: Lambert-Saint Louis International Airport (KSTL)
  • Aircraft: MD-83 (N44266TW)
  • Flight Time: 02.48
  • Date Submitted: 04/11/2018
  • Route: PIE J43 CLAMP J43 SZW MGM VUZ VISQA CGI STL
  • Status: Accepted
Flight Details
Gross Revenue:
(114 load / $ 265.00 per unit
$ 30, 210.00
Fuel Cost:
(27898 fuel used @ 0.8 / unit)
$ 22, 318.40

Additional Log Information:

View Log

FS[15:54] Aircraft Title - MD_83 Paint4
FS[15:54] Aircraft Model - MD83
FS[15:54] Flight Number TWA208-A
FS[15:54] Departure KTPA
FS[15:54] Destination KSTL
FS[15:54] Boarding
FS[16:07] Pushing Back
FS[16:10] Taxiing to Runway
FS[16:14] Taking Off
FS[16:15] Taking Off
FS[16:15] 179kts
FS[16:15] pitch angle 9 degrees
FS[16:15] 38991 (lbs) of fuel onboard
FS[16:15] Climbing
FS[16:29] TOC Reached
FS[16:29] Cruise 28000
FS[18:04] TOD Reached
FS[18:04] Descending
FS[18:19] On Approach
FS[18:26] Landing Rate -191fpm
FS[18:26] 13751 (lbs) of fuel onboard
FS[18:26] pitch angle 7 degrees
FS[18:26] Taxiing to Gate
FS[18:37] Arrived
FS[18:43] Max Sim Rate: 1x
FS[18:43] kACARS_Free Version 1.0.1.1

Comments

Commenter Comment
Austin Hill KTPA 111554Z 00509KT 10SM FEW055 24/11 A3014 // KSTL 111804Z 23116KT 10SM FEW120 25/03 A2992

Route Map